Meteo Giornale » Osservazioni meteo Italia » Pescara

ore: 16:50 - Osservazioni Meteo Pescara
Lat. 42° 26' N Lon. 14° 12' E Alt. 10 metri s.l.m.

sereno Europe/Rome

33 °C

Sereno

Temp. 24 Ore

27 °C

36 °C

Est/Nord-Est

14.8 Km/h

Dew point 17 °C

Umidità 38 %

Visibilità  10 Km

Il sole sorge alle ore 05:48

Il sole tramonta alle ore 20:31

Data e Ora Cielo e Fenomeni T °C DP °C Um. % Pres. hPa Vis. km Vento km/h
Oggi h: 16:50 sereno Sereno 33 17 38 1014 10 E/NE 14.8
Oggi h: 16:20 sereno Sereno 32 16 38 1014 10 NE 13
Oggi h: 15:50 poco_nuvoloso Poco Nuvoloso 33 18 41 1015 10 NE 14.8
Oggi h: 15:20 nuvoloso Nuvoloso 31 20 52 1015 10 NE 14.8
Oggi h: 14:50 sereno Sereno 31 19 48 1014 10 NE 16.7
Oggi h: 14:20 molto_nuvoloso Molto Nuvoloso 32 20 49 1014 10 NE 13
Oggi h: 13:50 molto_nuvoloso Molto Nuvoloso 32 20 49 1014 10 NE 9.3
Oggi h: 13:20 molto_nuvoloso Molto Nuvoloso 34 11 24 1014 10 NE 11.1
Oggi h: 12:50 nuvoloso Nuvoloso 34 11 24 1014 10 N/NE 16.7
Oggi h: 12:20 molto_nuvoloso Molto Nuvoloso 36 11 22 1013 10 SO 16.7
Oggi h: 11:50 molto_nuvoloso Molto Nuvoloso 36 7 16 1013 10 S/SO 9.3
Oggi h: 11:20 nuvoloso Nuvoloso 36 8 18 1013 10 N 5.5
Oggi h: 10:50 nuvoloso Nuvoloso 35 7 17 1013 10 SE 7.4
Oggi h: 10:20 nuvoloso Nuvoloso 34 8 20 1013 10 SE 7.4
Oggi h: 09:50 nuvoloso Nuvoloso 32 9 24 1012 10 E/SE 7.4
Oggi h: 09:20 molto_nuvoloso Molto Nuvoloso 29 11 32 1012 10 O/SO 9.3
Oggi h: 08:50 molto_nuvoloso Molto Nuvoloso 29 15 42 1013 10 N 5.5
Oggi h: 08:20 coperto_pioggia Pioggia Debole 28 19 58 1012 10 N 1.8
Oggi h: 07:50 molto_nuvoloso Molto Nuvoloso 28 22 69 1012 10 N 5.5
Oggi h: 07:20 coperto Coperto 27 22 74 1012 10 N/NE 11.1
Oggi h: 06:50 molto_nuvoloso Molto Nuvoloso 27 22 74 1011 10 E 16.7
Oggi h: 06:20 molto_nuvoloso Molto Nuvoloso 29 13 37 1011 10 N 5.5
Oggi h: 05:50 molto_nuvoloso Molto Nuvoloso 33 2 14 1011 10 O 9.3
Oggi h: 05:20 coperto Coperto 33 2 14 1011 10 SO 24
Oggi h: 04:50 molto_nuvoloso Molto Nuvoloso 34 3 14 1010 10 SO 27.8
Oggi h: 04:20 molto_nuvoloso Molto Nuvoloso 31 10 27 1010 10 O 11.1
Oggi h: 03:50 molto_nuvoloso Molto Nuvoloso 29 13 37 1010 10 N 7.4
Oggi h: 03:20 molto_nuvoloso Molto Nuvoloso 28 19 58 1010 10 N 5.5
Oggi h: 02:50 molto_nuvoloso Molto Nuvoloso 28 18 54 1010 10 N 3.7
Oggi h: 02:20 molto_nuvoloso Molto Nuvoloso 29 18 51 1009 10 E/NE 11.1
Oggi h: 01:50 coperto Coperto 30 17 45 1009 10 N/NE 11.1
Oggi h: 01:20 molto_nuvoloso Molto Nuvoloso 34 6 17 1010 10 O/SO 13
Oggi h: 00:50 coperto Coperto 35 6 16 1010 10 O/SO 22.2
Oggi h: 00:20 coperto Coperto 32 8 22 1009 10 SO 13
Ieri h: 23:50 molto_nuvoloso Molto Nuvoloso 32 8 22 1009 10 S/SO 9.3
Ieri h: 23:20 coperto Coperto 34 7 18 1009 10 O/SO 16.7
Ieri h: 22:50 molto_nuvoloso Molto Nuvoloso 33 7 19 1009 10 SO 16.7
Ieri h: 22:20 coperto Coperto 30 13 35 1009 10 N 5.5
Ieri h: 21:50 molto_nuvoloso Molto Nuvoloso 30 14 37 1009 10 SO 13
Ieri h: 21:20 molto_nuvoloso Molto Nuvoloso 28 20 61 1009 10 SO 9.3
Ieri h: 20:50 molto_nuvoloso Molto Nuvoloso 28 21 65 1009 10 SO 7.4
Ieri h: 20:20 molto_nuvoloso Molto Nuvoloso 30 20 55 1009 10 N 3.7
Ieri h: 19:50 nuvoloso Nuvoloso 30 20 55 1009 10 S 7.4
Ieri h: 19:20 sereno Sereno 31 20 52 1010 10 O/NO 7.4
Ieri h: 18:50 sereno Sereno 32 21 52 1010 10 N 5.5
Ieri h: 18:20 nuvoloso Nuvoloso 31 21 55 1010 10 N 5.5
Ieri h: 17:50 molto_nuvoloso Molto Nuvoloso 29 23 70 1010 10 N 5.5